Terminal Aerodrome Forecast
Issued by NWS Hastings, NE

Home | Current Version | Previous Version | Text Only | Print | Product List | Glossary On
Versions: 1 2 3 4 5 6 7 8 9 10 11 12 13 14 15 16 17 18 19 20 21 22 23 24 25 26
878
FTUS43 KGID 170537
TAFGRI
TAF
KGRI 170537Z 1706/1806 02010KT P6SM OVC150
     FM171300 36010KT P6SM BKN025 OVC100
     FM171700 36010KT P6SM FEW035 OVC100
     FM172200 VRB06KT P6SM BKN100=

USA.gov is the U.S. government's official web portal to all federal, state and local government web resources and services.